sensor_id;sensor_type;location;lat;lon;timestamp;temperature;humidity
64034;SHT31;50280;49.864;8.638;2022-10-16T00:01:38;15.78;94.70
64034;SHT31;50280;49.864;8.638;2022-10-16T00:04:11;15.78;94.75
64034;SHT31;50280;49.864;8.638;2022-10-16T00:06:45;15.78;94.86
64034;SHT31;50280;49.864;8.638;2022-10-16T00:09:18;15.79;94.91
64034;SHT31;50280;49.864;8.638;2022-10-16T00:11:51;15.77;94.88
64034;SHT31;50280;49.864;8.638;2022-10-16T00:14:23;15.75;94.84
64034;SHT31;50280;49.864;8.638;2022-10-16T00:16:55;15.75;94.85
64034;SHT31;50280;49.864;8.638;2022-10-16T00:19:28;15.72;94.87
64034;SHT31;50280;49.864;8.638;2022-10-16T00:22:01;15.71;94.87
64034;SHT31;50280;49.864;8.638;2022-10-16T00:24:34;15.69;94.78
64034;SHT31;50280;49.864;8.638;2022-10-16T00:27:06;15.68;94.77
64034;SHT31;50280;49.864;8.638;2022-10-16T00:29:38;15.65;94.79
64034;SHT31;50280;49.864;8.638;2022-10-16T00:32:11;15.63;94.70
64034;SHT31;50280;49.864;8.638;2022-10-16T00:34:43;15.59;94.63
64034;SHT31;50280;49.864;8.638;2022-10-16T00:37:17;15.58;94.60
64034;SHT31;50280;49.864;8.638;2022-10-16T00:39:50;15.54;94.52
64034;SHT31;50280;49.864;8.638;2022-10-16T00:42:22;15.51;94.52
64034;SHT31;50280;49.864;8.638;2022-10-16T00:44:56;15.50;94.43
64034;SHT31;50280;49.864;8.638;2022-10-16T00:47:32;15.43;94.34
64034;SHT31;50280;49.864;8.638;2022-10-16T00:50:13;15.41;94.17
64034;SHT31;50280;49.864;8.638;2022-10-16T00:52:55;15.35;93.98
64034;SHT31;50280;49.864;8.638;2022-10-16T00:55:30;15.28;93.75
64034;SHT31;50280;49.864;8.638;2022-10-16T00:58:02;15.26;93.58
64034;SHT31;50280;49.864;8.638;2022-10-16T01:00:35;15.22;93.40
64034;SHT31;50280;49.864;8.638;2022-10-16T01:03:24;15.20;93.43
64034;SHT31;50280;49.864;8.638;2022-10-16T01:06:08;15.17;93.29
64034;SHT31;50280;49.864;8.638;2022-10-16T01:09:06;15.11;93.36
64034;SHT31;50280;49.864;8.638;2022-10-16T01:11:54;15.13;93.23
64034;SHT31;50280;49.864;8.638;2022-10-16T01:14:44;15.10;93.26
64034;SHT31;50280;49.864;8.638;2022-10-16T01:17:28;15.07;92.99
64034;SHT31;50280;49.864;8.638;2022-10-16T01:20:16;15.10;92.93
64034;SHT31;50280;49.864;8.638;2022-10-16T01:23:10;15.11;92.81
64034;SHT31;50280;49.864;8.638;2022-10-16T01:26:10;15.14;92.82
64034;SHT31;50280;49.864;8.638;2022-10-16T01:29:14;15.16;92.88
64034;SHT31;50280;49.864;8.638;2022-10-16T01:31:56;15.16;93.06
64034;SHT31;50280;49.864;8.638;2022-10-16T01:34:39;15.16;93.14
64034;SHT31;50280;49.864;8.638;2022-10-16T01:37:25;15.17;93.28
64034;SHT31;50280;49.864;8.638;2022-10-16T01:40:09;15.20;93.47
64034;SHT31;50280;49.864;8.638;2022-10-16T01:42:48;15.19;93.58
64034;SHT31;50280;49.864;8.638;2022-10-16T01:45:31;15.22;93.69
64034;SHT31;50280;49.864;8.638;2022-10-16T01:48:07;15.22;93.68
64034;SHT31;50280;49.864;8.638;2022-10-16T01:50:52;15.26;93.73
64034;SHT31;50280;49.864;8.638;2022-10-16T01:53:31;15.26;93.77
64034;SHT31;50280;49.864;8.638;2022-10-16T01:56:08;15.26;93.82
64034;SHT31;50280;49.864;8.638;2022-10-16T01:58:49;15.31;93.88
64034;SHT31;50280;49.864;8.638;2022-10-16T02:01:31;15.33;93.90
64034;SHT31;50280;49.864;8.638;2022-10-16T02:04:11;15.35;93.90
64034;SHT31;50280;49.864;8.638;2022-10-16T02:06:50;15.37;94.00
64034;SHT31;50280;49.864;8.638;2022-10-16T02:09:25;15.38;94.04
64034;SHT31;50280;49.864;8.638;2022-10-16T02:11:59;15.41;94.11
64034;SHT31;50280;49.864;8.638;2022-10-16T02:14:40;15.44;94.03
64034;SHT31;50280;49.864;8.638;2022-10-16T02:17:15;15.47;93.91
64034;SHT31;50280;49.864;8.638;2022-10-16T02:19:53;15.48;93.75
64034;SHT31;50280;49.864;8.638;2022-10-16T02:22:31;15.55;93.69
64034;SHT31;50280;49.864;8.638;2022-10-16T02:25:10;15.55;93.58
64034;SHT31;50280;49.864;8.638;2022-10-16T02:27:54;15.58;93.46
64034;SHT31;50280;49.864;8.638;2022-10-16T02:30:35;15.61;93.37
64034;SHT31;50280;49.864;8.638;2022-10-16T02:33:16;15.62;93.34
64034;SHT31;50280;49.864;8.638;2022-10-16T02:35:54;15.63;93.30
64034;SHT31;50280;49.864;8.638;2022-10-16T02:38:30;15.63;93.36
64034;SHT31;50280;49.864;8.638;2022-10-16T02:41:03;15.63;93.34
64034;SHT31;50280;49.864;8.638;2022-10-16T02:43:37;15.66;93.40
64034;SHT31;50280;49.864;8.638;2022-10-16T02:46:09;15.68;93.40
64034;SHT31;50280;49.864;8.638;2022-10-16T02:48:43;15.68;93.46
64034;SHT31;50280;49.864;8.638;2022-10-16T02:51:15;15.69;93.52
64034;SHT31;50280;49.864;8.638;2022-10-16T02:53:48;15.68;93.62
64034;SHT31;50280;49.864;8.638;2022-10-16T02:56:21;15.68;93.71
64034;SHT31;50280;49.864;8.638;2022-10-16T02:58:53;15.66;93.78
64034;SHT31;50280;49.864;8.638;2022-10-16T03:01:26;15.68;93.84
64034;SHT31;50280;49.864;8.638;2022-10-16T03:03:59;15.69;93.95
64034;SHT31;50280;49.864;8.638;2022-10-16T03:06:32;15.68;93.97
64034;SHT31;50280;49.864;8.638;2022-10-16T03:09:04;15.68;93.97
64034;SHT31;50280;49.864;8.638;2022-10-16T03:11:36;15.72;94.04
64034;SHT31;50280;49.864;8.638;2022-10-16T03:14:09;15.71;94.04
64034;SHT31;50280;49.864;8.638;2022-10-16T03:16:41;15.71;94.03
64034;SHT31;50280;49.864;8.638;2022-10-16T03:19:15;15.71;93.85
64034;SHT31;50280;49.864;8.638;2022-10-16T03:21:48;15.69;93.72
64034;SHT31;50280;49.864;8.638;2022-10-16T03:24:21;15.75;93.62
64034;SHT31;50280;49.864;8.638;2022-10-16T03:26:53;15.75;93.65
64034;SHT31;50280;49.864;8.638;2022-10-16T03:29:26;15.77;93.70
64034;SHT31;50280;49.864;8.638;2022-10-16T03:31:58;15.77;93.81
64034;SHT31;50280;49.864;8.638;2022-10-16T03:34:33;15.77;93.95
64034;SHT31;50280;49.864;8.638;2022-10-16T03:37:05;15.77;94.04
64034;SHT31;50280;49.864;8.638;2022-10-16T03:39:37;15.73;94.13
64034;SHT31;50280;49.864;8.638;2022-10-16T03:42:10;15.75;94.17
64034;SHT31;50280;49.864;8.638;2022-10-16T03:44:42;15.75;94.25
64034;SHT31;50280;49.864;8.638;2022-10-16T03:47:15;15.73;94.31
64034;SHT31;50280;49.864;8.638;2022-10-16T03:49:49;15.75;94.36
64034;SHT31;50280;49.864;8.638;2022-10-16T03:52:21;15.75;94.39
64034;SHT31;50280;49.864;8.638;2022-10-16T03:54:54;15.69;94.40
64034;SHT31;50280;49.864;8.638;2022-10-16T03:57:26;15.71;94.48
64034;SHT31;50280;49.864;8.638;2022-10-16T03:59:59;15.69;94.55
64034;SHT31;50280;49.864;8.638;2022-10-16T04:02:31;15.72;94.51
64034;SHT31;50280;49.864;8.638;2022-10-16T04:05:05;15.72;94.53
64034;SHT31;50280;49.864;8.638;2022-10-16T04:07:38;15.69;94.55
64034;SHT31;50280;49.864;8.638;2022-10-16T04:10:11;15.66;94.60
64034;SHT31;50280;49.864;8.638;2022-10-16T04:12:43;15.69;94.54
64034;SHT31;50280;49.864;8.638;2022-10-16T04:15:15;15.66;94.56
64034;SHT31;50280;49.864;8.638;2022-10-16T04:17:49;15.65;94.67
64034;SHT31;50280;49.864;8.638;2022-10-16T04:20:23;15.65;94.64
64034;SHT31;50280;49.864;8.638;2022-10-16T04:22:56;15.65;94.67
64034;SHT31;50280;49.864;8.638;2022-10-16T04:25:28;15.62;94.69
64034;SHT31;50280;49.864;8.638;2022-10-16T04:28:01;15.65;94.75
64034;SHT31;50280;49.864;8.638;2022-10-16T04:30:33;15.63;94.81
64034;SHT31;50280;49.864;8.638;2022-10-16T04:33:05;15.62;94.83
64034;SHT31;50280;49.864;8.638;2022-10-16T04:35:41;15.61;94.88
64034;SHT31;50280;49.864;8.638;2022-10-16T04:38:13;15.61;94.88
64034;SHT31;50280;49.864;8.638;2022-10-16T04:40:46;15.59;94.90
64034;SHT31;50280;49.864;8.638;2022-10-16T04:43:18;15.58;94.92
64034;SHT31;50280;49.864;8.638;2022-10-16T04:45:52;15.59;94.94
64034;SHT31;50280;49.864;8.638;2022-10-16T04:48:24;15.55;94.95
64034;SHT31;50280;49.864;8.638;2022-10-16T04:50:59;15.55;95.01
64034;SHT31;50280;49.864;8.638;2022-10-16T04:53:31;15.55;95.01
64034;SHT31;50280;49.864;8.638;2022-10-16T04:56:04;15.52;95.02
64034;SHT31;50280;49.864;8.638;2022-10-16T04:58:37;15.52;95.03
64034;SHT31;50280;49.864;8.638;2022-10-16T05:01:09;15.54;95.07
64034;SHT31;50280;49.864;8.638;2022-10-16T05:03:42;15.52;95.10
64034;SHT31;50280;49.864;8.638;2022-10-16T05:06:16;15.50;95.13
64034;SHT31;50280;49.864;8.638;2022-10-16T05:08:48;15.50;95.15
64034;SHT31;50280;49.864;8.638;2022-10-16T05:11:20;15.51;95.14
64034;SHT31;50280;49.864;8.638;2022-10-16T05:13:53;15.50;95.14
64034;SHT31;50280;49.864;8.638;2022-10-16T05:16:25;15.48;95.15
64034;SHT31;50280;49.864;8.638;2022-10-16T05:18:58;15.50;95.16
64034;SHT31;50280;49.864;8.638;2022-10-16T05:21:31;15.50;95.11
64034;SHT31;50280;49.864;8.638;2022-10-16T05:24:04;15.48;95.10
64034;SHT31;50280;49.864;8.638;2022-10-16T05:26:36;15.47;95.12
64034;SHT31;50280;49.864;8.638;2022-10-16T05:29:09;15.45;95.14
64034;SHT31;50280;49.864;8.638;2022-10-16T05:31:41;15.45;95.07
64034;SHT31;50280;49.864;8.638;2022-10-16T05:34:13;15.45;95.08
64034;SHT31;50280;49.864;8.638;2022-10-16T05:36:47;15.44;95.05
64034;SHT31;50280;49.864;8.638;2022-10-16T05:39:20;15.43;95.03
64034;SHT31;50280;49.864;8.638;2022-10-16T05:41:52;15.43;95.04
64034;SHT31;50280;49.864;8.638;2022-10-16T05:44:24;15.44;95.02
64034;SHT31;50280;49.864;8.638;2022-10-16T05:46:57;15.41;95.00
64034;SHT31;50280;49.864;8.638;2022-10-16T05:49:29;15.43;94.95
64034;SHT31;50280;49.864;8.638;2022-10-16T05:52:03;15.41;94.87
64034;SHT31;50280;49.864;8.638;2022-10-16T05:54:36;15.41;94.85
64034;SHT31;50280;49.864;8.638;2022-10-16T05:57:08;15.38;94.83
64034;SHT31;50280;49.864;8.638;2022-10-16T05:59:40;15.38;94.77
64034;SHT31;50280;49.864;8.638;2022-10-16T06:02:13;15.35;94.82
64034;SHT31;50280;49.864;8.638;2022-10-16T06:04:48;15.40;94.81
64034;SHT31;50280;49.864;8.638;2022-10-16T06:07:22;15.41;94.78
64034;SHT31;50280;49.864;8.638;2022-10-16T06:09:55;15.38;94.72
64034;SHT31;50280;49.864;8.638;2022-10-16T06:12:27;15.43;94.68
64034;SHT31;50280;49.864;8.638;2022-10-16T06:14:59;15.44;94.61
64034;SHT31;50280;49.864;8.638;2022-10-16T06:17:32;15.45;94.57
64034;SHT31;50280;49.864;8.638;2022-10-16T06:20:05;15.47;94.52
64034;SHT31;50280;49.864;8.638;2022-10-16T06:22:39;15.48;94.41
64034;SHT31;50280;49.864;8.638;2022-10-16T06:25:12;15.51;94.34
64034;SHT31;50280;49.864;8.638;2022-10-16T06:27:44;15.52;94.23
64034;SHT31;50280;49.864;8.638;2022-10-16T06:30:16;15.52;94.22
64034;SHT31;50280;49.864;8.638;2022-10-16T06:32:49;15.57;94.14
64034;SHT31;50280;49.864;8.638;2022-10-16T06:35:21;15.59;94.01
64034;SHT31;50280;49.864;8.638;2022-10-16T06:37:55;15.58;93.90
64034;SHT31;50280;49.864;8.638;2022-10-16T06:40:27;15.61;93.80
64034;SHT31;50280;49.864;8.638;2022-10-16T06:43:00;15.62;93.72
64034;SHT31;50280;49.864;8.638;2022-10-16T06:45:32;15.63;93.62
64034;SHT31;50280;49.864;8.638;2022-10-16T06:48:04;15.63;93.55
64034;SHT31;50280;49.864;8.638;2022-10-16T06:50:37;15.66;93.45
64034;SHT31;50280;49.864;8.638;2022-10-16T06:53:11;15.68;93.33
64034;SHT31;50280;49.864;8.638;2022-10-16T06:55:43;15.69;93.15
64034;SHT31;50280;49.864;8.638;2022-10-16T06:58:15;15.75;92.97
64034;SHT31;50280;49.864;8.638;2022-10-16T07:00:48;15.81;92.79
64034;SHT31;50280;49.864;8.638;2022-10-16T07:03:27;15.83;92.62
64034;SHT31;50280;49.864;8.638;2022-10-16T07:06:03;15.89;92.34
64034;SHT31;50280;49.864;8.638;2022-10-16T07:08:40;15.96;92.17
64034;SHT31;50280;49.864;8.638;2022-10-16T07:11:17;16.00;91.95
64034;SHT31;50280;49.864;8.638;2022-10-16T07:13:52;16.06;91.80
64034;SHT31;50280;49.864;8.638;2022-10-16T07:16:26;16.09;91.58
64034;SHT31;50280;49.864;8.638;2022-10-16T07:19:01;16.13;91.25
64034;SHT31;50280;49.864;8.638;2022-10-16T07:21:35;16.17;91.23
64034;SHT31;50280;49.864;8.638;2022-10-16T07:24:12;16.18;91.18
64034;SHT31;50280;49.864;8.638;2022-10-16T07:26:46;16.23;91.07
64034;SHT31;50280;49.864;8.638;2022-10-16T07:29:20;16.23;90.90
64034;SHT31;50280;49.864;8.638;2022-10-16T07:31:53;16.24;90.76
64034;SHT31;50280;49.864;8.638;2022-10-16T07:34:26;16.30;90.77
64034;SHT31;50280;49.864;8.638;2022-10-16T07:36:58;16.33;90.79
64034;SHT31;50280;49.864;8.638;2022-10-16T07:39:32;16.33;91.10
64034;SHT31;50280;49.864;8.638;2022-10-16T07:42:04;16.30;91.40
64034;SHT31;50280;49.864;8.638;2022-10-16T07:44:36;16.25;91.66
64034;SHT31;50280;49.864;8.638;2022-10-16T07:47:09;16.24;91.78
64034;SHT31;50280;49.864;8.638;2022-10-16T07:49:41;16.20;91.91
64034;SHT31;50280;49.864;8.638;2022-10-16T07:52:14;16.18;91.98
64034;SHT31;50280;49.864;8.638;2022-10-16T07:54:47;16.17;92.13
64034;SHT31;50280;49.864;8.638;2022-10-16T07:57:20;16.17;92.23
64034;SHT31;50280;49.864;8.638;2022-10-16T07:59:52;16.14;92.13
64034;SHT31;50280;49.864;8.638;2022-10-16T08:02:24;16.17;92.21
64034;SHT31;50280;49.864;8.638;2022-10-16T08:04:57;16.16;92.10
64034;SHT31;50280;49.864;8.638;2022-10-16T08:07:29;16.21;92.22
64034;SHT31;50280;49.864;8.638;2022-10-16T08:10:03;16.25;92.26
64034;SHT31;50280;49.864;8.638;2022-10-16T08:12:37;16.28;92.09
64034;SHT31;50280;49.864;8.638;2022-10-16T08:15:09;16.34;91.78
64034;SHT31;50280;49.864;8.638;2022-10-16T08:17:42;16.38;91.69
64034;SHT31;50280;49.864;8.638;2022-10-16T08:20:15;16.40;91.54
64034;SHT31;50280;49.864;8.638;2022-10-16T08:22:48;16.44;91.34
64034;SHT31;50280;49.864;8.638;2022-10-16T08:25:22;16.45;91.29
64034;SHT31;50280;49.864;8.638;2022-10-16T08:27:56;16.48;91.46
64034;SHT31;50280;49.864;8.638;2022-10-16T08:30:28;16.48;91.43
64034;SHT31;50280;49.864;8.638;2022-10-16T08:33:01;16.44;91.42
64034;SHT31;50280;49.864;8.638;2022-10-16T08:35:34;16.45;91.72
64034;SHT31;50280;49.864;8.638;2022-10-16T08:38:07;16.44;92.03
64034;SHT31;50280;49.864;8.638;2022-10-16T08:40:42;16.37;92.30
64034;SHT31;50280;49.864;8.638;2022-10-16T08:43:38;16.33;92.71
64034;SHT31;50280;49.864;8.638;2022-10-16T08:46:51;16.23;93.10
64034;SHT31;50280;49.864;8.638;2022-10-16T08:49:42;16.17;93.48
64034;SHT31;50280;49.864;8.638;2022-10-16T08:52:29;16.12;93.75
64034;SHT31;50280;49.864;8.638;2022-10-16T08:55:17;16.06;93.87
64034;SHT31;50280;49.864;8.638;2022-10-16T08:58:10;16.02;94.02
64034;SHT31;50280;49.864;8.638;2022-10-16T09:00:47;16.02;94.12
64034;SHT31;50280;49.864;8.638;2022-10-16T09:03:33;15.96;94.25
64034;SHT31;50280;49.864;8.638;2022-10-16T09:06:40;15.95;94.35
64034;SHT31;50280;49.864;8.638;2022-10-16T09:09:37;15.95;94.49
64034;SHT31;50280;49.864;8.638;2022-10-16T09:12:36;15.97;94.55
64034;SHT31;50280;49.864;8.638;2022-10-16T09:15:27;16.03;94.65
64034;SHT31;50280;49.864;8.638;2022-10-16T09:18:13;16.10;94.58
64034;SHT31;50280;49.864;8.638;2022-10-16T09:21:00;16.17;94.79
64034;SHT31;50280;49.864;8.638;2022-10-16T09:23:43;16.28;94.54
64034;SHT31;50280;49.864;8.638;2022-10-16T09:26:17;16.34;94.45
64034;SHT31;50280;49.864;8.638;2022-10-16T09:28:52;16.37;94.33
64034;SHT31;50280;49.864;8.638;2022-10-16T09:31:26;16.44;94.37
64034;SHT31;50280;49.864;8.638;2022-10-16T09:34:00;16.52;94.17
64034;SHT31;50280;49.864;8.638;2022-10-16T09:36:40;16.59;93.75
64034;SHT31;50280;49.864;8.638;2022-10-16T09:39:17;16.64;93.44
64034;SHT31;50280;49.864;8.638;2022-10-16T09:41:50;16.71;93.34
64034;SHT31;50280;49.864;8.638;2022-10-16T09:44:26;16.85;93.32
64034;SHT31;50280;49.864;8.638;2022-10-16T09:47:05;16.96;93.04
64034;SHT31;50280;49.864;8.638;2022-10-16T09:49:54;17.09;92.93
64034;SHT31;50280;49.864;8.638;2022-10-16T09:52:29;17.20;92.35
64034;SHT31;50280;49.864;8.638;2022-10-16T09:55:13;17.37;91.20
64034;SHT31;50280;49.864;8.638;2022-10-16T09:57:49;17.52;90.50
64034;SHT31;50280;49.864;8.638;2022-10-16T10:00:23;17.69;90.09
64034;SHT31;50280;49.864;8.638;2022-10-16T10:02:58;17.79;88.89
64034;SHT31;50280;49.864;8.638;2022-10-16T10:05:30;17.95;89.34
64034;SHT31;50280;49.864;8.638;2022-10-16T10:08:03;18.12;88.21
64034;SHT31;50280;49.864;8.638;2022-10-16T10:10:41;18.21;87.47
64034;SHT31;50280;49.864;8.638;2022-10-16T10:13:18;18.30;87.15
64034;SHT31;50280;49.864;8.638;2022-10-16T10:15:54;18.26;86.34
64034;SHT31;50280;49.864;8.638;2022-10-16T10:18:28;18.18;87.02
64034;SHT31;50280;49.864;8.638;2022-10-16T10:21:02;18.17;87.14
64034;SHT31;50280;49.864;8.638;2022-10-16T10:23:35;18.18;86.69
64034;SHT31;50280;49.864;8.638;2022-10-16T10:26:10;18.21;87.01
64034;SHT31;50280;49.864;8.638;2022-10-16T10:28:59;18.20;86.25
64034;SHT31;50280;49.864;8.638;2022-10-16T10:31:44;18.23;86.28
64034;SHT31;50280;49.864;8.638;2022-10-16T10:34:50;18.30;85.81
64034;SHT31;50280;49.864;8.638;2022-10-16T10:37:51;18.44;86.69
64034;SHT31;50280;49.864;8.638;2022-10-16T10:40:51;18.65;84.98
64034;SHT31;50280;49.864;8.638;2022-10-16T10:43:45;18.93;85.13
64034;SHT31;50280;49.864;8.638;2022-10-16T10:46:35;19.17;84.20
64034;SHT31;50280;49.864;8.638;2022-10-16T10:49:30;19.53;83.77
64034;SHT31;50280;49.864;8.638;2022-10-16T10:52:41;19.93;82.41
64034;SHT31;50280;49.864;8.638;2022-10-16T10:55:33;20.24;81.28
64034;SHT31;50280;49.864;8.638;2022-10-16T10:58:26;20.23;79.49
64034;SHT31;50280;49.864;8.638;2022-10-16T11:01:35;20.09;80.45
64034;SHT31;50280;49.864;8.638;2022-10-16T11:04:38;20.36;79.63
64034;SHT31;50280;49.864;8.638;2022-10-16T11:07:49;20.49;79.76
64034;SHT31;50280;49.864;8.638;2022-10-16T11:10:36;20.41;79.56
64034;SHT31;50280;49.864;8.638;2022-10-16T11:13:26;20.28;78.44
64034;SHT31;50280;49.864;8.638;2022-10-16T11:16:15;20.14;80.16
64034;SHT31;50280;49.864;8.638;2022-10-16T11:18:58;19.99;80.82
64034;SHT31;50280;49.864;8.638;2022-10-16T11:21:47;19.85;81.17
64034;SHT31;50280;49.864;8.638;2022-10-16T11:24:37;19.69;81.16
64034;SHT31;50280;49.864;8.638;2022-10-16T11:27:28;19.62;81.86
64034;SHT31;50280;49.864;8.638;2022-10-16T11:30:16;19.90;80.74
64034;SHT31;50280;49.864;8.638;2022-10-16T11:33:04;20.23;78.84
64034;SHT31;50280;49.864;8.638;2022-10-16T11:36:00;20.47;78.10
64034;SHT31;50280;49.864;8.638;2022-10-16T11:38:50;20.83;76.74
64034;SHT31;50280;49.864;8.638;2022-10-16T11:41:34;21.07;76.83
64034;SHT31;50280;49.864;8.638;2022-10-16T11:44:31;21.27;74.57
64034;SHT31;50280;49.864;8.638;2022-10-16T11:47:24;21.38;74.17
64034;SHT31;50280;49.864;8.638;2022-10-16T11:50:17;21.24;73.89
64034;SHT31;50280;49.864;8.638;2022-10-16T11:53:02;21.04;74.76
64034;SHT31;50280;49.864;8.638;2022-10-16T11:55:49;20.85;75.19
64034;SHT31;50280;49.864;8.638;2022-10-16T11:58:25;20.83;76.07
64034;SHT31;50280;49.864;8.638;2022-10-16T12:01:17;21.16;74.82
64034;SHT31;50280;49.864;8.638;2022-10-16T12:04:11;21.54;75.01
64034;SHT31;50280;49.864;8.638;2022-10-16T12:06:59;22.02;73.68
64034;SHT31;50280;49.864;8.638;2022-10-16T12:09:41;22.32;71.23
64034;SHT31;50280;49.864;8.638;2022-10-16T12:12:26;22.45;71.61
64034;SHT31;50280;49.864;8.638;2022-10-16T12:15:20;22.61;70.92
64034;SHT31;50280;49.864;8.638;2022-10-16T12:17:57;22.78;68.68
64034;SHT31;50280;49.864;8.638;2022-10-16T12:20:31;23.05;68.09
64034;SHT31;50280;49.864;8.638;2022-10-16T12:23:06;23.23;67.69
64034;SHT31;50280;49.864;8.638;2022-10-16T12:25:54;23.33;66.02
64034;SHT31;50280;49.864;8.638;2022-10-16T12:28:32;23.22;65.99
64034;SHT31;50280;49.864;8.638;2022-10-16T12:31:07;23.20;66.75
64034;SHT31;50280;49.864;8.638;2022-10-16T12:33:43;23.03;66.38
64034;SHT31;50280;49.864;8.638;2022-10-16T12:36:32;22.73;67.68
64034;SHT31;50280;49.864;8.638;2022-10-16T12:39:20;22.47;68.24
64034;SHT31;50280;49.864;8.638;2022-10-16T12:42:02;22.29;68.73
64034;SHT31;50280;49.864;8.638;2022-10-16T12:44:38;22.24;69.43
64034;SHT31;50280;49.864;8.638;2022-10-16T12:47:20;22.17;69.56
64034;SHT31;50280;49.864;8.638;2022-10-16T12:49:55;22.14;70.46
64034;SHT31;50280;49.864;8.638;2022-10-16T12:52:35;22.18;70.44
64034;SHT31;50280;49.864;8.638;2022-10-16T12:55:16;22.20;70.73
64034;SHT31;50280;49.864;8.638;2022-10-16T12:58:06;22.14;71.32
64034;SHT31;50280;49.864;8.638;2022-10-16T13:00:57;22.14;71.20
64034;SHT31;50280;49.864;8.638;2022-10-16T13:04:01;22.21;70.39
64034;SHT31;50280;49.864;8.638;2022-10-16T13:06:55;22.21;71.14
64034;SHT31;50280;49.864;8.638;2022-10-16T13:09:55;22.17;71.27
64034;SHT31;50280;49.864;8.638;2022-10-16T13:12:54;22.27;70.98
64034;SHT31;50280;49.864;8.638;2022-10-16T13:15:58;22.30;69.65
64034;SHT31;50280;49.864;8.638;2022-10-16T13:19:00;22.18;70.99
64034;SHT31;50280;49.864;8.638;2022-10-16T13:21:52;22.00;71.25
64034;SHT31;50280;49.864;8.638;2022-10-16T13:24:47;21.82;71.93
64034;SHT31;50280;49.864;8.638;2022-10-16T13:27:43;21.62;72.54
64034;SHT31;50280;49.864;8.638;2022-10-16T13:30:27;21.50;73.24
64034;SHT31;50280;49.864;8.638;2022-10-16T13:33:06;21.35;73.50
64034;SHT31;50280;49.864;8.638;2022-10-16T13:35:49;21.23;74.09
64034;SHT31;50280;49.864;8.638;2022-10-16T13:38:25;21.16;74.42
64034;SHT31;50280;49.864;8.638;2022-10-16T13:41:01;21.09;74.75
64034;SHT31;50280;49.864;8.638;2022-10-16T13:43:38;21.03;75.76
64034;SHT31;50280;49.864;8.638;2022-10-16T13:46:16;20.96;75.78
64034;SHT31;50280;49.864;8.638;2022-10-16T13:49:00;20.88;75.79
64034;SHT31;50280;49.864;8.638;2022-10-16T13:51:35;20.81;75.51
64034;SHT31;50280;49.864;8.638;2022-10-16T13:54:09;20.75;75.36
64034;SHT31;50280;49.864;8.638;2022-10-16T13:56:43;20.68;76.37
64034;SHT31;50280;49.864;8.638;2022-10-16T13:59:23;20.64;76.60
64034;SHT31;50280;49.864;8.638;2022-10-16T14:01:58;20.56;76.71
64034;SHT31;50280;49.864;8.638;2022-10-16T14:04:39;20.54;76.53
64034;SHT31;50280;49.864;8.638;2022-10-16T14:07:14;20.48;77.35
64034;SHT31;50280;49.864;8.638;2022-10-16T14:10:01;20.43;77.34
64034;SHT31;50280;49.864;8.638;2022-10-16T14:12:38;20.41;77.94
64034;SHT31;50280;49.864;8.638;2022-10-16T14:15:16;20.41;78.40
64034;SHT31;50280;49.864;8.638;2022-10-16T14:17:52;20.40;78.40
64034;SHT31;50280;49.864;8.638;2022-10-16T14:20:29;20.44;79.02
64034;SHT31;50280;49.864;8.638;2022-10-16T14:23:19;20.47;79.15
64034;SHT31;50280;49.864;8.638;2022-10-16T14:26:05;20.45;78.51
64034;SHT31;50280;49.864;8.638;2022-10-16T14:28:47;20.44;78.01
64034;SHT31;50280;49.864;8.638;2022-10-16T14:31:33;20.38;78.16
64034;SHT31;50280;49.864;8.638;2022-10-16T14:34:24;20.34;78.74
64034;SHT31;50280;49.864;8.638;2022-10-16T14:37:02;20.28;79.04
64034;SHT31;50280;49.864;8.638;2022-10-16T14:39:49;20.26;79.41
64034;SHT31;50280;49.864;8.638;2022-10-16T14:42:24;20.19;79.59
64034;SHT31;50280;49.864;8.638;2022-10-16T14:44:57;20.16;79.66
64034;SHT31;50280;49.864;8.638;2022-10-16T14:47:30;20.14;80.22
64034;SHT31;50280;49.864;8.638;2022-10-16T14:50:07;20.10;80.18
64034;SHT31;50280;49.864;8.638;2022-10-16T14:52:42;20.09;80.38
64034;SHT31;50280;49.864;8.638;2022-10-16T14:55:15;20.08;80.70
64034;SHT31;50280;49.864;8.638;2022-10-16T14:57:48;20.06;80.71
64034;SHT31;50280;49.864;8.638;2022-10-16T15:00:23;20.05;81.00
64034;SHT31;50280;49.864;8.638;2022-10-16T15:02:56;20.02;80.78
64034;SHT31;50280;49.864;8.638;2022-10-16T15:05:28;20.02;80.52
64034;SHT31;50280;49.864;8.638;2022-10-16T15:08:02;20.02;80.21
64034;SHT31;50280;49.864;8.638;2022-10-16T15:10:38;20.05;80.35
64034;SHT31;50280;49.864;8.638;2022-10-16T15:13:14;20.05;80.27
64034;SHT31;50280;49.864;8.638;2022-10-16T15:15:47;20.06;80.45
64034;SHT31;50280;49.864;8.638;2022-10-16T15:18:19;20.09;80.21
64034;SHT31;50280;49.864;8.638;2022-10-16T15:20:52;20.14;80.40
64034;SHT31;50280;49.864;8.638;2022-10-16T15:23:25;20.20;80.87
64034;SHT31;50280;49.864;8.638;2022-10-16T15:25:58;20.28;80.39
64034;SHT31;50280;49.864;8.638;2022-10-16T15:28:31;20.31;80.07
64034;SHT31;50280;49.864;8.638;2022-10-16T15:31:04;20.31;80.35
64034;SHT31;50280;49.864;8.638;2022-10-16T15:33:37;20.31;79.13
64034;SHT31;50280;49.864;8.638;2022-10-16T15:36:09;20.31;79.90
64034;SHT31;50280;49.864;8.638;2022-10-16T15:38:43;20.31;80.20
64034;SHT31;50280;49.864;8.638;2022-10-16T15:41:15;20.30;79.26
64034;SHT31;50280;49.864;8.638;2022-10-16T15:43:48;20.27;77.91
64034;SHT31;50280;49.864;8.638;2022-10-16T15:46:23;20.24;78.58
64034;SHT31;50280;49.864;8.638;2022-10-16T15:48:57;20.24;78.66
64034;SHT31;50280;49.864;8.638;2022-10-16T15:51:30;20.20;79.52
64034;SHT31;50280;49.864;8.638;2022-10-16T15:54:04;20.19;79.64
64034;SHT31;50280;49.864;8.638;2022-10-16T15:56:37;20.16;79.91
64034;SHT31;50280;49.864;8.638;2022-10-16T15:59:09;20.10;80.24
64034;SHT31;50280;49.864;8.638;2022-10-16T16:01:42;20.06;80.39
64034;SHT31;50280;49.864;8.638;2022-10-16T16:04:14;20.02;80.55
64034;SHT31;50280;49.864;8.638;2022-10-16T16:06:46;19.94;80.77
64034;SHT31;50280;49.864;8.638;2022-10-16T16:09:20;19.92;81.01
64034;SHT31;50280;49.864;8.638;2022-10-16T16:11:53;19.82;81.36
64034;SHT31;50280;49.864;8.638;2022-10-16T16:14:25;19.75;81.76
64034;SHT31;50280;49.864;8.638;2022-10-16T16:16:58;19.68;81.96
64034;SHT31;50280;49.864;8.638;2022-10-16T16:19:31;19.61;81.97
64034;SHT31;50280;49.864;8.638;2022-10-16T16:22:04;19.53;82.16
64034;SHT31;50280;49.864;8.638;2022-10-16T16:24:38;19.46;82.36
64034;SHT31;50280;49.864;8.638;2022-10-16T16:27:10;19.40;82.65
64034;SHT31;50280;49.864;8.638;2022-10-16T16:29:42;19.34;82.83
64034;SHT31;50280;49.864;8.638;2022-10-16T16:32:15;19.28;83.01
64034;SHT31;50280;49.864;8.638;2022-10-16T16:34:47;19.19;83.00
64034;SHT31;50280;49.864;8.638;2022-10-16T16:37:20;19.14;83.31
64034;SHT31;50280;49.864;8.638;2022-10-16T16:39:53;19.09;83.68